createdAt,value
2017-05-06T04:00:50.649Z,348
2017-05-06T04:01:16.153Z,348
2017-05-06T04:01:41.612Z,352
2017-05-06T04:02:07.116Z,360
2017-05-06T04:02:32.600Z,356
2017-05-06T04:02:58.062Z,372
2017-05-06T04:03:23.535Z,372
2017-05-06T04:03:49.001Z,384
2017-05-06T04:04:14.481Z,392
2017-05-06T04:04:39.994Z,396
2017-05-06T04:05:05.497Z,396
2017-05-06T04:05:31.006Z,408
2017-05-06T04:05:56.488Z,420
2017-05-06T04:06:21.968Z,420
2017-05-06T04:06:47.434Z,428
2017-05-06T04:07:12.929Z,436
2017-05-06T04:07:38.413Z,440
2017-05-06T04:08:03.881Z,456
2017-05-06T04:08:29.378Z,464
2017-05-06T04:08:54.863Z,484
2017-05-06T04:09:20.316Z,500
2017-05-06T04:09:45.805Z,508
2017-05-06T04:10:11.303Z,516
2017-05-06T04:10:36.800Z,540
2017-05-06T04:11:02.275Z,540
2017-05-06T04:11:27.761Z,560
2017-05-06T04:11:53.254Z,592
2017-05-06T04:12:18.799Z,596
2017-05-06T04:12:44.239Z,600
2017-05-06T04:13:09.716Z,620
2017-05-06T04:13:35.204Z,632
2017-05-06T04:14:00.668Z,640
2017-05-06T04:14:26.132Z,644
2017-05-06T04:14:51.622Z,636
2017-05-06T04:15:17.119Z,660
2017-05-06T04:15:42.613Z,672
2017-05-06T04:16:08.072Z,688
2017-05-06T04:16:33.612Z,724
2017-05-06T04:16:59.067Z,704
2017-05-06T04:17:24.535Z,728
2017-05-06T04:17:49.999Z,716
2017-05-06T04:18:15.459Z,716
2017-05-06T04:18:40.958Z,756
2017-05-06T04:19:06.437Z,760
2017-05-06T04:19:31.914Z,776
2017-05-06T04:19:57.423Z,792
2017-05-06T04:20:22.901Z,788
2017-05-06T04:20:48.414Z,796
2017-05-06T04:21:13.887Z,840
2017-05-06T04:21:39.343Z,848
2017-05-06T04:22:04.837Z,856
2017-05-06T04:22:30.368Z,856
2017-05-06T04:22:55.870Z,900
2017-05-06T04:23:21.370Z,888
2017-05-06T04:23:46.836Z,912
2017-05-06T04:24:12.324Z,920
2017-05-06T04:24:37.812Z,928
2017-05-06T04:25:03.308Z,944
2017-05-06T04:25:28.765Z,936
2017-05-06T04:25:54.246Z,940
2017-05-06T04:26:19.719Z,956
2017-05-06T04:26:45.216Z,1004
2017-05-06T04:27:10.736Z,992
2017-05-06T04:27:36.233Z,984
2017-05-06T04:28:01.691Z,1064
2017-05-06T04:28:27.171Z,1088
2017-05-06T04:28:52.628Z,1084
2017-05-06T04:29:18.105Z,1084
2017-05-06T04:29:43.592Z,1084
2017-05-06T04:30:09.068Z,1096
2017-05-06T04:30:34.555Z,1156
2017-05-06T04:31:00.036Z,1152
2017-05-06T04:31:25.507Z,1156
2017-05-06T04:31:50.972Z,1208
2017-05-06T04:32:16.497Z,1204
2017-05-06T04:32:42.041Z,1220
2017-05-06T04:33:07.513Z,1284
2017-05-06T04:33:33.002Z,1336
2017-05-06T04:33:58.476Z,1324
2017-05-06T04:34:23.952Z,1300
2017-05-06T04:34:49.431Z,1332
2017-05-06T04:35:14.921Z,1352
2017-05-06T04:35:40.407Z,1360
2017-05-06T04:36:05.900Z,1336
2017-05-06T04:36:31.358Z,1388
2017-05-06T04:36:56.853Z,1392
2017-05-06T04:37:22.333Z,1444
2017-05-06T04:37:47.818Z,1456
2017-05-06T04:38:13.330Z,1456
2017-05-06T04:38:38.808Z,1496
2017-05-06T04:39:04.275Z,1556
2017-05-06T04:39:29.780Z,1576
2017-05-06T04:39:55.281Z,1640
2017-05-06T04:40:20.735Z,1712
2017-05-06T04:40:46.233Z,1712
2017-05-06T04:41:11.698Z,1668
2017-05-06T04:41:37.161Z,1632
2017-05-06T04:42:02.654Z,1772
2017-05-06T04:42:28.144Z,1796
2017-05-06T04:42:53.622Z,1780
2017-05-06T04:43:19.151Z,1712
2017-05-06T04:43:44.637Z,1752
2017-05-06T04:44:10.067Z,1860
2017-05-06T04:44:35.584Z,1924
2017-05-06T04:45:01.076Z,1852
2017-05-06T04:45:26.557Z,1936
2017-05-06T04:45:52.076Z,1980
2017-05-06T04:46:17.551Z,1968
2017-05-06T04:46:43.067Z,1924
2017-05-06T04:47:08.569Z,2032
2017-05-06T04:47:34.055Z,2124
2017-05-06T04:47:59.519Z,2076
2017-05-06T04:48:24.981Z,2032
2017-05-06T04:48:50.460Z,2148
2017-05-06T04:49:15.920Z,2332
2017-05-06T04:49:41.421Z,2288
2017-05-06T04:50:06.871Z,2180
2017-05-06T04:50:32.373Z,2228
2017-05-06T04:50:57.903Z,2356
2017-05-06T04:51:23.366Z,2324
2017-05-06T04:51:48.859Z,2392
2017-05-06T04:52:14.320Z,2484
2017-05-06T04:52:39.780Z,2516
2017-05-06T04:53:05.243Z,2504
2017-05-06T04:53:30.702Z,2544
2017-05-06T04:53:56.205Z,2568
2017-05-06T04:54:21.663Z,2496
2017-05-06T04:54:47.192Z,2544
2017-05-06T04:55:12.667Z,2516
2017-05-06T04:55:38.174Z,2644
2017-05-06T04:56:03.711Z,2600
2017-05-06T04:56:29.191Z,2696
2017-05-06T04:56:54.681Z,2728
2017-05-06T04:57:20.161Z,2772
2017-05-06T04:57:45.655Z,2856
2017-05-06T04:58:11.136Z,2772
2017-05-06T04:58:36.598Z,2860
2017-05-06T04:59:02.089Z,2820
2017-05-06T04:59:27.559Z,2948
2017-05-06T04:59:53.062Z,3040
2017-05-06T05:00:18.539Z,2920
2017-05-06T05:00:44.047Z,2864
2017-05-06T05:01:09.496Z,3172
2017-05-06T05:01:34.962Z,3536
2017-05-06T05:02:00.446Z,3272
2017-05-06T05:02:25.927Z,3092
2017-05-06T05:02:51.403Z,2980
2017-05-06T05:03:16.886Z,2904
2017-05-06T05:03:42.383Z,3132
2017-05-06T05:04:07.870Z,3524
2017-05-06T05:04:33.365Z,3836
2017-05-06T05:04:58.835Z,3676
2017-05-06T05:05:24.326Z,3344
2017-05-06T05:05:49.817Z,3344
2017-05-06T05:06:15.274Z,3536
2017-05-06T05:06:40.756Z,3544
2017-05-06T05:07:06.207Z,3244
2017-05-06T05:07:31.702Z,3216
2017-05-06T05:07:57.189Z,3356
2017-05-06T05:08:22.648Z,3436
2017-05-06T05:08:48.148Z,3740
2017-05-06T05:09:13.653Z,3788
2017-05-06T05:09:39.111Z,3920
2017-05-06T05:10:04.615Z,3812
2017-05-06T05:10:30.124Z,3568
2017-05-06T05:10:55.591Z,3960
2017-05-06T05:11:21.026Z,4072
2017-05-06T05:11:46.518Z,4008
2017-05-06T05:12:11.993Z,3960
2017-05-06T05:12:37.477Z,4216
2017-05-06T05:13:02.962Z,4052
2017-05-06T05:13:28.433Z,4036
2017-05-06T05:13:53.916Z,4028
2017-05-06T05:14:19.422Z,4084
2017-05-06T05:14:44.874Z,4108
2017-05-06T05:15:10.364Z,3816
2017-05-06T05:15:35.830Z,4060
2017-05-06T05:16:01.321Z,4080
2017-05-06T05:16:26.777Z,4100
2017-05-06T05:17:50.795Z,3896
2017-05-06T05:18:16.263Z,4312
2017-05-06T05:18:41.745Z,4004
2017-05-06T05:19:07.234Z,3652
2017-05-06T05:19:32.717Z,3652
2017-05-06T05:19:58.216Z,3504
2017-05-06T05:20:23.738Z,3372
2017-05-06T05:20:49.206Z,3440
2017-05-06T05:21:14.676Z,3540
2017-05-06T05:21:40.174Z,3576
2017-05-06T05:22:05.664Z,3720
2017-05-06T05:22:31.168Z,3852
2017-05-06T05:22:56.628Z,3768
2017-05-06T05:23:22.125Z,3868
2017-05-06T05:23:47.602Z,3828
2017-05-06T05:24:13.112Z,3856
2017-05-06T05:24:38.594Z,3956
2017-05-06T05:25:04.102Z,3848
2017-05-06T05:25:29.589Z,3828
2017-05-06T05:25:55.092Z,3860
2017-05-06T05:26:20.579Z,3724
2017-05-06T05:26:46.045Z,3720
2017-05-06T05:27:11.572Z,3720
2017-05-06T05:27:37.068Z,3792
2017-05-06T05:28:02.557Z,3760
2017-05-06T05:28:28.064Z,3700
2017-05-06T05:28:53.551Z,4004
2017-05-06T05:29:19.081Z,3948
2017-05-06T05:29:44.570Z,3956
2017-05-06T05:30:10.065Z,3928
2017-05-06T05:30:35.574Z,3916
2017-05-06T05:31:01.032Z,3752
2017-05-06T05:31:26.558Z,3760
2017-05-06T05:31:52.093Z,4008
2017-05-06T05:32:17.562Z,3812
2017-05-06T05:32:43.028Z,3700
2017-05-06T05:33:08.538Z,3912
2017-05-06T05:33:34.029Z,3768
2017-05-06T05:33:59.505Z,3944
2017-05-06T05:34:24.978Z,3804
2017-05-06T05:34:50.462Z,3788
2017-05-06T05:35:15.922Z,3904
2017-05-06T05:35:41.436Z,4032
2017-05-06T05:36:06.920Z,3924
2017-05-06T05:36:32.399Z,4056
2017-05-06T05:36:57.872Z,4072
2017-05-06T05:37:23.381Z,4056
2017-05-06T05:37:48.869Z,4148
2017-05-06T05:38:14.315Z,4096
2017-05-06T05:38:39.791Z,4024
2017-05-06T05:39:05.293Z,4360
2017-05-06T05:39:30.766Z,4416
2017-05-06T05:39:56.303Z,4388
2017-05-06T05:40:21.765Z,4368
2017-05-06T05:40:47.272Z,4388
2017-05-06T05:41:12.779Z,4608
2017-05-06T05:41:38.238Z,4464
2017-05-06T05:42:03.696Z,4368
2017-05-06T05:42:29.175Z,4224
2017-05-06T05:42:54.691Z,4212
2017-05-06T05:43:20.174Z,4224
2017-05-06T05:43:45.632Z,4156
2017-05-06T05:44:11.100Z,4188
2017-05-06T05:44:36.545Z,4200
2017-05-06T05:45:02.046Z,4368
2017-05-06T05:45:27.509Z,4372
2017-05-06T05:45:52.988Z,4460
2017-05-06T05:46:18.481Z,4456
2017-05-06T05:46:43.955Z,4436
2017-05-06T05:47:09.423Z,4604
2017-05-06T05:47:34.894Z,4540
2017-05-06T05:48:00.407Z,4648
2017-05-06T05:48:25.888Z,4912
2017-05-06T05:48:51.358Z,4700
2017-05-06T05:49:16.830Z,4652
2017-05-06T05:49:42.325Z,4592
2017-05-06T05:50:07.814Z,4516
2017-05-06T05:50:33.303Z,4656
2017-05-06T05:50:58.790Z,4876
2017-05-06T05:51:24.265Z,4748
2017-05-06T05:51:49.751Z,4668
2017-05-06T05:52:15.226Z,4572
2017-05-06T05:52:40.728Z,4552
2017-05-06T05:53:06.213Z,4620
2017-05-06T05:53:31.736Z,4700
2017-05-06T05:53:57.206Z,4756
2017-05-06T05:54:22.712Z,4772
2017-05-06T05:54:48.187Z,4736
2017-05-06T05:55:13.682Z,4648
2017-05-06T05:55:39.163Z,4696
2017-05-06T05:56:04.653Z,4852
2017-05-06T05:56:30.139Z,4984
2017-05-06T05:56:55.604Z,4956
2017-05-06T05:57:21.101Z,4824
2017-05-06T05:57:46.587Z,4864
2017-05-06T05:58:12.083Z,4956
2017-05-06T05:58:37.577Z,5096
2017-05-06T05:59:03.079Z,5168
2017-05-06T05:59:28.576Z,5036
2017-05-06T05:59:54.077Z,4984
2017-05-06T06:00:19.577Z,4908
2017-05-06T06:00:45.049Z,5368
2017-05-06T06:01:10.519Z,5724
2017-05-06T06:01:36.019Z,6104
2017-05-06T06:02:01.495Z,5820
2017-05-06T06:02:26.997Z,5620
2017-05-06T06:02:52.473Z,5300
2017-05-06T06:03:17.989Z,5152
2017-05-06T06:03:43.449Z,5304
2017-05-06T06:04:08.932Z,5548
2017-05-06T06:04:34.386Z,5580
2017-05-06T06:04:59.883Z,5460
2017-05-06T06:05:25.374Z,5452
2017-05-06T06:05:50.864Z,5220
2017-05-06T06:06:16.369Z,5172
2017-05-06T06:06:41.850Z,5464
2017-05-06T06:07:07.329Z,5316
2017-05-06T06:07:32.830Z,5400
2017-05-06T06:07:58.326Z,5416
2017-05-06T06:08:23.795Z,5164
2017-05-06T06:08:49.269Z,5344
2017-05-06T06:09:14.769Z,5212
2017-05-06T06:09:40.234Z,5120
2017-05-06T06:10:05.717Z,5136
2017-05-06T06:10:31.206Z,5112
2017-05-06T06:10:56.716Z,5152
2017-05-06T06:11:22.233Z,5264
2017-05-06T06:11:47.720Z,5516
2017-05-06T06:12:13.200Z,5348
2017-05-06T06:12:38.703Z,5272
2017-05-06T06:13:04.187Z,5136
2017-05-06T06:13:29.646Z,5164
2017-05-06T06:13:55.135Z,5224
2017-05-06T06:14:20.604Z,5472
2017-05-06T06:14:46.093Z,5772
2017-05-06T06:15:11.610Z,5616
2017-05-06T06:15:37.131Z,5388
2017-05-06T06:16:02.620Z,5372
2017-05-06T06:16:28.075Z,5184
2017-05-06T06:16:53.578Z,5092
2017-05-06T06:17:19.102Z,5052
2017-05-06T06:17:44.563Z,5104
2017-05-06T06:18:10.072Z,5152
2017-05-06T06:18:35.577Z,5136
2017-05-06T06:19:01.043Z,5188
2017-05-06T06:19:26.527Z,5300
2017-05-06T06:19:52.007Z,5464
2017-05-06T06:20:17.521Z,5200
2017-05-06T06:20:43.015Z,5024
2017-05-06T06:21:08.481Z,4992
2017-05-06T06:21:34.028Z,4980
2017-05-06T06:21:59.474Z,4912
2017-05-06T06:22:24.997Z,4892
2017-05-06T06:22:50.452Z,4916
2017-05-06T06:23:15.953Z,5040
2017-05-06T06:23:41.471Z,4852
2017-05-06T06:24:06.899Z,4744
2017-05-06T06:24:32.417Z,4680
2017-05-06T06:24:57.896Z,4648
2017-05-06T06:25:23.400Z,4616
2017-05-06T06:25:48.884Z,4560
2017-05-06T06:26:14.356Z,4472
2017-05-06T06:26:39.842Z,4452
2017-05-06T06:27:05.326Z,4436
2017-05-06T06:27:30.832Z,4448
2017-05-06T06:27:56.329Z,4564
2017-05-06T06:28:21.807Z,4580
2017-05-06T06:28:47.315Z,4520
2017-05-06T06:29:12.801Z,4564
2017-05-06T06:29:38.271Z,4504
2017-05-06T06:30:03.786Z,4392
2017-05-06T06:30:29.286Z,4264
2017-05-06T06:30:54.738Z,4240
2017-05-06T06:31:20.232Z,4228
2017-05-06T06:31:45.719Z,4232
2017-05-06T06:32:11.185Z,4232
2017-05-06T06:32:36.662Z,4320
2017-05-06T06:33:02.117Z,4220
2017-05-06T06:33:27.626Z,4388
2017-05-06T06:33:53.098Z,4196
2017-05-06T06:34:18.591Z,4096
2017-05-06T06:34:44.096Z,3996
2017-05-06T06:35:09.609Z,3956
2017-05-06T06:35:35.076Z,3840
2017-05-06T06:36:00.576Z,3836
2017-05-06T06:36:26.052Z,3804
2017-05-06T06:36:51.553Z,3868
2017-05-06T06:37:17.027Z,3832
2017-05-06T06:37:42.480Z,3796
2017-05-06T06:38:07.966Z,3788
2017-05-06T06:38:33.484Z,3804
2017-05-06T06:38:58.947Z,3824
2017-05-06T06:39:24.426Z,3828
2017-05-06T06:39:49.920Z,3824
2017-05-06T06:40:15.381Z,3804
2017-05-06T06:40:40.866Z,3800
2017-05-06T06:41:06.343Z,3868
2017-05-06T06:41:31.831Z,3952
2017-05-06T06:41:57.296Z,4016
2017-05-06T06:42:22.769Z,4136
2017-05-06T06:42:48.262Z,4208
2017-05-06T06:43:13.722Z,4368
2017-05-06T06:43:39.225Z,4264
2017-05-06T06:44:04.713Z,4244
2017-05-06T06:44:30.180Z,4416
2017-05-06T06:44:55.652Z,4264
2017-05-06T06:45:21.137Z,4396
2017-05-06T06:45:46.636Z,4444
2017-05-06T06:46:12.129Z,4372
2017-05-06T06:46:37.619Z,4348
2017-05-06T06:47:03.107Z,4488
2017-05-06T06:47:28.590Z,4724
2017-05-06T06:47:54.067Z,4520
2017-05-06T06:48:19.572Z,4492
2017-05-06T06:48:45.050Z,4516
2017-05-06T06:49:10.513Z,4884
2017-05-06T06:49:35.990Z,5068
2017-05-06T06:50:01.485Z,4872
2017-05-06T06:50:26.942Z,4728
2017-05-06T06:50:52.424Z,4664
2017-05-06T06:51:17.934Z,4804
2017-05-06T06:51:43.407Z,4772
2017-05-06T06:52:08.884Z,5144
2017-05-06T06:52:34.347Z,5284
2017-05-06T06:52:59.830Z,5032
2017-05-06T06:53:25.321Z,4808
2017-05-06T06:53:50.844Z,4692
2017-05-06T06:54:16.309Z,4604
2017-05-06T06:54:41.767Z,4504
2017-05-06T06:55:07.245Z,4424
2017-05-06T06:55:32.751Z,4476
2017-05-06T06:55:58.259Z,4524
2017-05-06T06:56:23.767Z,4640
2017-05-06T06:56:49.262Z,4744
2017-05-06T06:57:14.754Z,4716
2017-05-06T06:57:40.226Z,4656
2017-05-06T06:58:05.682Z,4844
2017-05-06T06:58:31.150Z,4836
2017-05-06T06:58:56.636Z,5056
2017-05-06T06:59:22.109Z,5288
2017-05-06T06:59:47.593Z,5416
2017-05-06T07:00:13.078Z,5212
2017-05-06T07:00:38.541Z,4788
2017-05-06T07:01:04.012Z,4584
2017-05-06T07:01:29.476Z,4772
2017-05-06T07:01:54.988Z,4996
2017-05-06T07:02:20.463Z,5296
2017-05-06T07:02:45.953Z,5288
2017-05-06T07:03:11.434Z,5672
2017-05-06T07:03:36.906Z,6412
2017-05-06T07:04:02.368Z,7228
2017-05-06T07:04:27.852Z,7428
2017-05-06T07:04:53.309Z,6428
2017-05-06T07:05:18.808Z,5816
2017-05-06T07:05:44.307Z,6264
2017-05-06T07:06:09.802Z,7736
2017-05-06T07:06:35.259Z,7388
2017-05-06T07:07:00.748Z,7964
2017-05-06T07:07:26.219Z,7384
2017-05-06T07:07:51.674Z,6548
2017-05-06T07:08:17.158Z,6240
2017-05-06T07:08:42.640Z,6188
2017-05-06T07:09:08.104Z,6212
2017-05-06T07:09:33.605Z,5784
2017-05-06T07:09:59.118Z,6088
2017-05-06T07:10:24.616Z,6860
2017-05-06T07:10:50.107Z,7700
2017-05-06T07:11:15.594Z,6076
2017-05-06T07:11:41.116Z,5684
2017-05-06T07:12:06.545Z,5288
2017-05-06T07:12:32.036Z,6504
2017-05-06T07:12:57.504Z,7028
2017-05-06T07:13:23.007Z,7972
2017-05-06T07:13:48.486Z,7512
2017-05-06T07:14:13.963Z,6940
2017-05-06T07:14:39.444Z,6860
2017-05-06T07:15:04.947Z,6392
2017-05-06T07:15:30.425Z,6504
2017-05-06T07:15:55.928Z,7584
2017-05-06T07:16:21.422Z,8036
2017-05-06T07:16:46.919Z,7992
2017-05-06T07:17:12.400Z,7584
2017-05-06T07:17:37.876Z,9728
2017-05-06T07:18:03.334Z,9608
2017-05-06T07:18:28.814Z,8028
2017-05-06T07:18:54.308Z,7100
2017-05-06T07:19:19.779Z,7332
2017-05-06T07:19:45.260Z,6380
2017-05-06T07:20:10.779Z,5612
2017-05-06T07:20:36.278Z,5992
2017-05-06T07:21:01.752Z,5264
2017-05-06T07:21:27.240Z,4840
2017-05-06T07:21:52.698Z,4756
2017-05-06T07:22:18.191Z,5148
2017-05-06T07:22:43.669Z,5116
2017-05-06T07:23:09.192Z,5016
2017-05-06T07:23:34.659Z,4924
2017-05-06T07:24:00.145Z,5056
2017-05-06T07:24:25.654Z,6096
2017-05-06T07:24:51.152Z,6888
2017-05-06T07:25:16.661Z,6056
2017-05-06T07:25:42.136Z,5576
2017-05-06T07:26:07.622Z,5504
2017-05-06T07:26:33.084Z,5324
2017-05-06T07:26:58.574Z,5036
2017-05-06T07:27:24.047Z,4980
2017-05-06T07:27:49.539Z,5660
2017-05-06T07:28:15.049Z,7784
2017-05-06T07:28:40.519Z,8584
2017-05-06T07:29:06.002Z,7608
2017-05-06T07:29:31.458Z,6784
2017-05-06T07:29:56.941Z,7636
2017-05-06T07:30:22.427Z,7064
2017-05-06T07:30:47.888Z,5780
2017-05-06T07:31:13.350Z,6224
2017-05-06T07:31:38.823Z,5980
2017-05-06T07:32:04.266Z,5660
2017-05-06T07:32:29.735Z,6560
2017-05-06T07:32:55.246Z,6448
2017-05-06T07:33:20.719Z,6924
2017-05-06T07:33:46.189Z,7360
2017-05-06T07:34:11.665Z,9580
2017-05-06T07:34:37.128Z,9120
2017-05-06T07:35:02.599Z,8032
2017-05-06T07:35:28.078Z,8964
2017-05-06T07:35:53.566Z,8040
2017-05-06T07:36:19.091Z,7388
2017-05-06T07:36:44.563Z,6752
2017-05-06T07:37:10.031Z,7064
2017-05-06T07:37:35.510Z,8128
2017-05-06T07:38:00.953Z,9704
2017-05-06T07:38:26.405Z,9644
2017-05-06T07:38:51.931Z,8576
2017-05-06T07:39:17.414Z,9468
2017-05-06T07:39:42.890Z,10992
2017-05-06T07:40:08.362Z,9460
2017-05-06T07:40:33.849Z,7768
2017-05-06T07:40:59.380Z,8796
2017-05-06T07:41:24.850Z,9716
2017-05-06T07:41:50.320Z,9380
2017-05-06T07:42:15.886Z,8544
2017-05-06T07:42:41.406Z,8596
2017-05-06T07:43:06.936Z,8536
2017-05-06T07:43:32.436Z,8700
2017-05-06T07:43:57.901Z,9936
2017-05-06T07:44:23.381Z,10332
2017-05-06T07:44:48.855Z,9460
2017-05-06T07:45:14.324Z,8420
2017-05-06T07:45:39.786Z,7500
2017-05-06T07:46:05.255Z,7652
2017-05-06T07:46:30.726Z,8764
2017-05-06T07:46:56.197Z,9412
2017-05-06T07:47:21.702Z,9204
2017-05-06T07:47:47.205Z,9532
2017-05-06T07:48:12.656Z,8428
2017-05-06T07:48:38.157Z,7088
2017-05-06T07:49:03.633Z,6428
2017-05-06T07:49:29.104Z,6340
2017-05-06T07:49:54.575Z,6964
2017-05-06T07:50:20.077Z,6728
2017-05-06T07:50:45.585Z,6488
2017-05-06T07:51:11.059Z,7096
2017-05-06T07:51:36.511Z,6672
2017-05-06T07:52:02.000Z,6976
2017-05-06T07:52:27.502Z,8064
2017-05-06T07:52:52.989Z,8836
2017-05-06T07:53:18.447Z,7948
2017-05-06T07:53:43.937Z,8804
2017-05-06T07:54:09.471Z,7668
2017-05-06T07:54:34.917Z,6848
2017-05-06T07:55:00.374Z,6100
2017-05-06T07:55:25.851Z,6608
2017-05-06T07:55:51.316Z,8264
2017-05-06T07:56:16.818Z,9804
2017-05-06T07:56:42.306Z,9636
2017-05-06T07:57:07.773Z,7784
2017-05-06T07:57:33.218Z,7016
2017-05-06T07:57:58.700Z,6820
2017-05-06T07:58:24.161Z,7848
2017-05-06T07:58:49.611Z,8756
2017-05-06T07:59:15.094Z,7388
2017-05-06T07:59:40.570Z,7568
2017-05-06T08:00:06.037Z,8824
2017-05-06T08:00:31.518Z,9468
2017-05-06T08:00:56.958Z,9096
2017-05-06T08:01:22.416Z,8572
2017-05-06T08:01:47.912Z,8920
2017-05-06T08:02:13.377Z,8076
2017-05-06T08:02:38.841Z,7460
2017-05-06T08:03:04.297Z,7096
2017-05-06T08:03:29.758Z,7188
2017-05-06T08:03:55.251Z,7200
2017-05-06T08:04:20.720Z,7876
2017-05-06T08:04:46.194Z,7784
2017-05-06T08:05:11.706Z,7728
2017-05-06T08:05:37.158Z,7220
2017-05-06T08:06:02.645Z,6928
2017-05-06T08:06:28.098Z,7056
2017-05-06T08:06:53.574Z,6988
2017-05-06T08:07:19.043Z,7044
2017-05-06T08:07:44.509Z,7596
2017-05-06T08:08:10.078Z,7888
2017-05-06T08:08:35.480Z,8480
2017-05-06T08:09:00.935Z,9768
2017-05-06T08:09:26.438Z,9072
2017-05-06T08:09:51.920Z,8180
2017-05-06T08:10:17.467Z,7316
2017-05-06T08:10:42.882Z,6700
2017-05-06T08:11:08.321Z,6844
2017-05-06T08:11:33.777Z,7024
2017-05-06T08:11:59.273Z,6636
2017-05-06T08:12:24.822Z,6148
2017-05-06T08:12:50.271Z,5896
2017-05-06T08:13:15.759Z,6036
2017-05-06T08:13:41.232Z,6232
2017-05-06T08:14:06.708Z,6524
2017-05-06T08:14:32.208Z,7300
2017-05-06T08:14:57.661Z,8048
2017-05-06T08:15:23.136Z,7228
2017-05-06T08:15:48.585Z,6676
2017-05-06T08:16:14.073Z,6760
2017-05-06T08:16:39.521Z,6812
2017-05-06T08:17:05.060Z,6224
2017-05-06T08:17:30.463Z,5700
2017-05-06T08:17:55.941Z,5548
2017-05-06T08:18:21.388Z,6652
2017-05-06T08:18:46.893Z,7200
2017-05-06T08:19:12.322Z,6956
2017-05-06T08:19:37.841Z,6864
2017-05-06T08:20:03.316Z,7512
2017-05-06T08:20:28.786Z,7772
2017-05-06T08:20:54.276Z,7692
2017-05-06T08:21:19.754Z,7112
2017-05-06T08:21:45.194Z,6552
2017-05-06T08:22:10.654Z,6684
2017-05-06T08:22:36.152Z,7240
2017-05-06T08:23:01.605Z,8032
2017-05-06T08:23:27.069Z,8492
2017-05-06T08:23:52.546Z,9996
2017-05-06T08:24:17.996Z,11744
2017-05-06T08:24:43.481Z,12860
2017-05-06T08:25:08.945Z,11096
2017-05-06T08:25:34.442Z,9292
2017-05-06T08:25:59.909Z,8728
2017-05-06T08:26:25.366Z,9060
2017-05-06T08:26:50.864Z,8896
2017-05-06T08:27:16.334Z,8760
2017-05-06T08:27:41.748Z,8232
2017-05-06T08:28:07.230Z,10460
2017-05-06T08:28:32.716Z,11612
2017-05-06T08:28:58.194Z,10516
2017-05-06T08:29:23.636Z,10856
2017-05-06T08:29:49.062Z,11420
2017-05-06T08:30:14.580Z,11888
2017-05-06T08:30:40.019Z,10560
2017-05-06T08:31:05.514Z,9332
2017-05-06T08:31:30.959Z,9280
2017-05-06T08:31:56.447Z,9060
2017-05-06T08:32:21.891Z,8980
2017-05-06T08:32:47.396Z,8300
2017-05-06T08:33:12.893Z,9440
2017-05-06T08:33:38.350Z,10472
2017-05-06T08:34:04.184Z,9804
2017-05-06T08:34:30.116Z,8844
2017-05-06T08:34:55.579Z,8912
2017-05-06T08:35:21.061Z,9320
2017-05-06T08:35:46.544Z,8788
2017-05-06T08:36:12.048Z,8256
2017-05-06T08:36:37.522Z,8340
2017-05-06T08:37:03.027Z,7452
2017-05-06T08:37:28.509Z,7568
2017-05-06T08:37:53.973Z,7888
2017-05-06T08:38:19.446Z,7076
2017-05-06T08:38:44.924Z,7612
2017-05-06T08:39:10.397Z,6824
2017-05-06T08:39:35.867Z,6088
2017-05-06T08:40:01.352Z,6832
2017-05-06T08:40:26.816Z,7060
2017-05-06T08:40:52.286Z,7540
2017-05-06T08:41:17.770Z,6960
2017-05-06T08:41:43.232Z,6508
2017-05-06T08:42:08.701Z,6508
2017-05-06T08:42:34.174Z,6720
2017-05-06T08:42:59.682Z,6584
2017-05-06T08:43:25.156Z,6116
2017-05-06T08:43:50.645Z,5636
2017-05-06T08:44:16.126Z,5508
2017-05-06T08:44:41.593Z,5472
2017-05-06T08:45:07.052Z,5620
2017-05-06T08:45:32.567Z,5576
2017-05-06T08:45:58.021Z,5632
2017-05-06T08:46:23.494Z,5520
2017-05-06T08:46:48.965Z,5676
2017-05-06T08:47:14.452Z,5780
2017-05-06T08:47:39.905Z,5836
2017-05-06T08:48:05.400Z,6104
2017-05-06T08:48:30.843Z,5736
2017-05-06T08:48:56.316Z,5672
2017-05-06T08:49:21.798Z,5628
2017-05-06T08:49:47.325Z,5556
2017-05-06T08:50:12.796Z,5408
2017-05-06T08:50:38.244Z,5416
2017-05-06T08:51:03.722Z,5484
2017-05-06T08:51:29.194Z,5700
2017-05-06T08:51:54.640Z,6000
2017-05-06T08:52:20.131Z,6412
2017-05-06T08:52:45.596Z,6540
2017-05-06T08:53:11.066Z,6404
2017-05-06T08:53:36.511Z,6340
2017-05-06T08:54:01.981Z,6412
2017-05-06T08:54:27.440Z,7220
2017-05-06T08:54:52.902Z,7740
2017-05-06T08:55:18.393Z,7660
2017-05-06T08:55:43.857Z,7456
2017-05-06T08:56:09.321Z,7120
2017-05-06T08:56:34.766Z,7324
2017-05-06T08:57:00.245Z,6908
2017-05-06T08:57:25.715Z,6568
2017-05-06T08:57:51.210Z,6760
2017-05-06T08:58:16.679Z,7116
2017-05-06T08:58:42.145Z,7192
2017-05-06T08:59:07.609Z,7208
2017-05-06T08:59:33.220Z,6832
2017-05-06T08:59:58.695Z,7040
2017-05-06T09:00:24.195Z,6816
2017-05-06T09:00:49.666Z,6880
2017-05-06T09:01:15.140Z,7500
2017-05-06T09:01:40.607Z,7508
2017-05-06T09:02:06.114Z,8072
2017-05-06T09:02:31.611Z,7192
2017-05-06T09:02:57.226Z,6660
2017-05-06T09:03:22.721Z,6368
2017-05-06T09:03:48.256Z,6120
2017-05-06T09:04:13.816Z,5972
2017-05-06T09:04:39.357Z,5832
2017-05-06T09:05:04.821Z,5732
2017-05-06T09:05:30.336Z,5612
2017-05-06T09:05:55.819Z,5620
2017-05-06T09:06:21.320Z,5572
2017-05-06T09:06:47.144Z,5556
2017-05-06T09:07:12.644Z,5564
2017-05-06T09:07:38.136Z,5644
2017-05-06T09:08:03.758Z,5852
2017-05-06T09:08:29.501Z,5944
2017-05-06T09:08:54.965Z,5872
2017-05-06T09:09:20.472Z,5772
2017-05-06T09:09:45.951Z,5920
2017-05-06T09:10:11.400Z,5948
2017-05-06T09:10:36.880Z,5772
2017-05-06T09:11:02.362Z,5704
2017-05-06T09:11:28.059Z,5648
2017-05-06T09:11:53.499Z,5620
2017-05-06T09:12:18.974Z,5628
2017-05-06T09:12:44.475Z,5628
2017-05-06T09:13:10.144Z,5628
2017-05-06T09:13:35.596Z,5592
2017-05-06T09:14:01.091Z,5540
2017-05-06T09:14:26.625Z,5560
2017-05-06T09:14:52.095Z,5596
2017-05-06T09:15:17.601Z,5576
2017-05-06T09:15:43.110Z,5560
2017-05-06T09:16:08.620Z,5556
2017-05-06T09:16:34.080Z,5576
2017-05-06T09:16:59.529Z,5572
2017-05-06T09:17:25.006Z,5572
2017-05-06T09:17:50.476Z,5568
2017-05-06T09:18:15.968Z,5560
2017-05-06T09:18:41.384Z,5560
2017-05-06T09:19:06.859Z,5564
2017-05-06T09:19:32.348Z,5552
2017-05-06T09:19:57.761Z,5500
2017-05-06T09:20:23.249Z,5512
2017-05-06T09:20:48.752Z,5528
2017-05-06T09:21:14.238Z,5504
2017-05-06T09:21:39.744Z,5472
2017-05-06T09:22:05.216Z,5496
2017-05-06T09:22:30.680Z,5488
2017-05-06T09:22:56.174Z,5476
2017-05-06T09:23:21.625Z,5504
2017-05-06T09:23:47.158Z,5556
2017-05-06T09:24:12.645Z,5608
2017-05-06T09:24:38.090Z,5620
2017-05-06T09:25:03.555Z,5608
2017-05-06T09:25:29.000Z,5568
2017-05-06T09:25:54.466Z,5544
2017-05-06T09:26:19.981Z,5512
2017-05-06T09:26:45.456Z,5516
2017-05-06T09:27:10.902Z,5580
2017-05-06T09:27:36.356Z,5588
2017-05-06T09:28:01.835Z,5584
2017-05-06T09:28:27.313Z,5568
2017-05-06T09:28:52.750Z,5540
2017-05-06T09:29:18.211Z,5528
2017-05-06T09:29:43.677Z,5488
2017-05-06T09:30:09.123Z,5432
2017-05-06T09:30:34.592Z,5404
2017-05-06T09:31:00.038Z,5352
2017-05-06T09:31:25.554Z,5448
2017-05-06T09:31:50.999Z,5512
2017-05-06T09:32:16.534Z,5576
2017-05-06T09:32:41.963Z,5564
2017-05-06T09:33:07.464Z,5584
2017-05-06T09:33:32.919Z,5600
2017-05-06T09:33:58.356Z,5668
2017-05-06T09:34:23.895Z,5684
2017-05-06T09:34:49.331Z,5608
2017-05-06T09:35:14.772Z,5532
2017-05-06T09:35:40.252Z,5580
2017-05-06T09:36:05.742Z,5744
2017-05-06T09:36:31.243Z,5756
2017-05-06T09:36:56.619Z,5712
2017-05-06T09:37:22.135Z,5640
2017-05-06T09:37:47.580Z,5524
2017-05-06T09:38:13.073Z,5480
2017-05-06T09:38:38.548Z,5560
2017-05-06T09:39:04.043Z,5788
2017-05-06T09:39:29.464Z,5780
2017-05-06T09:39:54.928Z,5628
2017-05-06T09:40:20.392Z,5804
2017-05-06T09:40:45.906Z,6124
2017-05-06T09:41:11.331Z,6076
2017-05-06T09:41:36.875Z,5860